Time;durP1;ratioP1;P1;durP2;ratioP2;P2;SDS_P1;SDS_P2;PMS_P1;PMS_P2;Temp;Humidity;BMP_temperature;BMP_pressure;BME280_temperature;BME280_humidity;BME280_pressure;Samples;Min_cycle;Max_cycle;Signal;HPM_P1;HPM_P2
2023/03/08 00:00:49;;;;;;;34.87;22.07;;;1.40;99.90;;;;;;4991408;28;20241;-66
2023/03/08 00:03:16;;;;;;;45.03;23.70;;;1.50;99.90;;;;;;4990844;28;20229;-66
2023/03/08 00:05:43;;;;;;;42.87;24.00;;;1.50;99.00;;;;;;4990607;28;20233;-65
2023/03/08 00:08:10;;;;;;;44.30;24.17;;;1.40;85.50;;;;;;4981090;28;20214;-65
2023/03/08 00:10:41;;;;;;;41.60;24.17;;;1.40;33.80;;;;;;4978285;28;20204;-67
2023/03/08 00:13:12;;;;;;;38.20;23.87;;;1.40;11.30;;;;;;4986792;28;20189;-66
2023/03/08 00:15:43;;;;;;;45.43;24.00;;;1.30;97.20;;;;;;5010449;28;20292;-66
2023/03/08 00:18:10;;;;;;;39.53;23.90;;;1.30;99.90;;;;;;4995958;28;20251;-65
2023/03/08 00:20:38;;;;;;;42.90;25.53;;;1.30;99.90;;;;;;4996145;28;20604;-66
2023/03/08 00:23:07;;;;;;;49.57;27.10;;;1.20;63.50;;;;;;4978223;28;20554;-65
2023/03/08 00:25:34;;;;;;;42.90;25.60;;;1.30;40.00;;;;;;4984766;28;20276;-64
2023/03/08 00:28:04;;;;;;;38.23;23.83;;;1.20;69.80;;;;;;4990540;28;20237;-67
2023/03/08 00:30:31;;;;;;;41.77;24.40;;;1.00;99.90;;;;;;4981923;28;20275;-66
2023/03/08 00:32:58;;;;;;;38.10;22.57;;;0.90;99.90;;;;;;4990459;28;20193;-66
2023/03/08 00:35:26;;;;;;;37.53;23.27;;;0.80;99.90;;;;;;4968139;28;20654;-66
2023/03/08 00:37:55;;;;;;;40.33;23.90;;;1.40;99.90;;;;;;4983991;28;20203;-64
2023/03/08 00:40:26;;;;;;;37.43;22.67;;;0.60;99.90;;;;;;4990158;28;20663;-65
2023/03/08 00:42:53;;;;;;;40.70;23.60;;;0.60;1.00;;;;;;4955444;28;20239;-66
2023/03/08 00:45:20;;;;;;;37.97;24.13;;;0.50;1.00;;;;;;4990200;28;20676;-66
2023/03/08 00:47:47;;;;;;;33.83;21.90;;;0.30;1.00;;;;;;4990670;28;20680;-66
2023/03/08 00:50:14;;;;;;;39.23;23.23;;;0.20;1.00;;;;;;4988839;28;20225;-68
2023/03/08 00:52:41;;;;;;;35.50;22.37;;;0.20;1.00;;;;;;4971089;28;20574;-67
2023/03/08 00:55:12;;;;;;;40.13;22.37;;;0.20;1.00;;;;;;4980459;28;20658;-66
2023/03/08 00:57:39;;;;;;;42.53;24.70;;;0.00;21.50;;;;;;4964388;28;20272;-65
2023/03/08 01:00:11;;;;;;;39.00;23.50;;;0.00;99.90;;;;;;4989373;28;20206;-66
2023/03/08 01:02:39;;;;;;;37.57;23.43;;;-0.10;99.90;;;;;;4989330;28;20215;-65
2023/03/08 01:05:08;;;;;;;40.20;22.80;;;-0.10;99.90;;;;;;4986911;28;20367;-66
2023/03/08 01:07:36;;;;;;;45.43;25.50;;;-0.10;99.90;;;;;;4989861;28;20312;-65
2023/03/08 01:10:04;;;;;;;43.13;25.40;;;0.00;1.00;;;;;;4963779;28;20198;-67
2023/03/08 01:12:32;;;;;;;45.97;25.00;;;0.00;1.00;;;;;;4971552;28;20646;-66
2023/03/08 01:15:00;;;;;;;50.10;26.40;;;0.00;1.00;;;;;;4964072;28;20260;-67
2023/03/08 01:17:27;;;;;;;44.40;25.27;;;-0.10;1.00;;;;;;4979958;28;20303;-67
2023/03/08 01:19:54;;;;;;;47.10;26.00;;;-0.10;1.00;;;;;;4980017;28;20252;-67
2023/03/08 01:22:21;;;;;;;47.07;26.87;;;-0.10;1.00;;;;;;5004453;28;20244;-65
2023/03/08 01:24:49;;;;;;;51.17;28.47;;;-0.10;1.00;;;;;;4987114;28;20209;-65
2023/03/08 01:27:16;;;;;;;44.40;27.10;;;-0.10;1.00;;;;;;4988679;28;20605;-65
2023/03/08 01:29:43;;;;;;;57.10;29.53;;;-0.10;11.10;;;;;;4979139;28;20300;-64
2023/03/08 01:32:10;;;;;;;53.17;29.17;;;-0.10;87.60;;;;;;5004501;28;20213;-66
2023/03/08 01:34:38;;;;;;;60.43;30.23;;;-0.10;78.10;;;;;;4954926;28;20198;-68
2023/03/08 01:37:05;;;;;;;52.67;29.33;;;-0.20;91.30;;;;;;4980160;28;20260;-67
2023/03/08 01:39:32;;;;;;;55.63;29.63;;;-0.20;99.90;;;;;;4986818;28;20567;-67
2023/03/08 01:42:06;;;;;;;50.20;28.63;;;-0.30;89.30;;;;;;5003336;28;20213;-67
2023/03/08 01:44:51;;;;;;;52.63;29.47;;;-0.40;62.30;;;;;;4979562;28;20268;-66
2023/03/08 01:47:22;;;;;;;54.20;29.10;;;-0.50;99.90;;;;;;4987252;28;20701;-67
2023/03/08 01:50:12;;;;;;;47.60;27.13;;;-0.40;99.90;;;;;;5003398;28;20545;-67
2023/03/08 01:52:47;;;;;;;55.20;29.70;;;-0.40;99.90;;;;;;4971607;28;20291;-67
2023/03/08 01:55:15;;;;;;;57.53;30.50;;;-0.30;1.00;;;;;;4961937;28;20247;-67
2023/03/08 01:57:50;;;;;;;56.93;30.63;;;-0.20;1.00;;;;;;5002670;28;20201;-67
2023/03/08 02:00:23;;;;;;;61.10;30.53;;;-0.10;1.00;;;;;;4963742;28;20313;-62
2023/03/08 02:03:01;;;;;;;62.97;31.83;;;0.00;1.00;;;;;;4999296;28;20193;-60
2023/03/08 02:05:29;;;;;;;55.57;30.40;;;0.00;1.00;;;;;;4952481;28;20238;-64
2023/03/08 02:08:03;;;;;;;56.23;30.97;;;0.00;1.00;;;;;;4938614;29;20223;-64
2023/03/08 02:10:36;;;;;;;59.63;30.93;;;0.00;1.00;;;;;;4953969;28;20210;-64
2023/03/08 02:13:05;;;;;;;62.20;31.67;;;-0.10;1.00;;;;;;4928473;29;20203;-62
2023/03/08 02:15:33;;;;;;;64.77;32.47;;;-0.20;1.00;;;;;;4938940;28;20290;-63
2023/03/08 02:18:00;;;;;;;66.50;32.70;;;-0.20;1.00;;;;;;4954200;28;20202;-62
2023/03/08 02:20:31;;;;;;;58.90;32.40;;;-0.30;1.00;;;;;;4939944;29;20191;-65
2023/03/08 02:23:15;;;;;;;61.07;33.20;;;-0.40;1.00;;;;;;4954711;28;20206;-64
2023/03/08 02:25:52;;;;;;;64.57;30.73;;;-0.60;1.00;;;;;;4939695;28;20906;-65
2023/03/08 02:28:21;;;;;;;59.40;31.00;;;-0.70;1.00;;;;;;4936135;28;20325;-65
2023/03/08 02:30:49;;;;;;;157.20;80.23;;;-0.70;1.00;;;;;;4937372;28;20207;-64
2023/03/08 02:33:17;;;;;;;64.30;36.03;;;-0.70;1.00;;;;;;4953321;28;20213;-64
2023/03/08 02:35:45;;;;;;;70.80;36.47;;;-0.70;1.00;;;;;;4939774;28;20833;-64
2023/03/08 02:38:14;;;;;;;58.27;30.33;;;-0.80;1.00;;;;;;4953007;28;20195;-64
2023/03/08 02:40:41;;;;;;;60.90;31.00;;;-0.70;1.00;;;;;;4938100;28;20256;-64
2023/03/08 02:43:09;;;;;;;58.67;31.00;;;-0.80;1.00;;;;;;4954515;28;20266;-64
2023/03/08 02:45:38;;;;;;;64.03;31.83;;;-0.70;22.00;;;;;;4938561;29;20741;-64
2023/03/08 02:48:07;;;;;;;60.67;32.73;;;-0.80;99.90;;;;;;4946415;29;20219;-64
2023/03/08 02:50:35;;;;;;;69.20;32.67;;;-0.70;99.90;;;;;;4922555;29;20202;-64
2023/03/08 02:53:03;;;;;;;65.50;31.13;;;-0.70;99.90;;;;;;4939169;29;20195;-64
2023/03/08 02:55:35;;;;;;;66.20;31.90;;;-0.80;99.90;;;;;;4955226;28;20283;-64
2023/03/08 02:58:08;;;;;;;62.67;31.03;;;-0.80;99.90;;;;;;4952248;28;20202;-64
2023/03/08 03:00:37;;;;;;;65.03;32.13;;;-0.80;99.90;;;;;;4952183;28;20211;-64
2023/03/08 03:03:04;;;;;;;63.30;31.93;;;-0.80;1.00;;;;;;4939377;29;20211;-63
2023/03/08 03:05:31;;;;;;;64.70;31.40;;;-0.70;1.00;;;;;;4938383;28;20196;-64
2023/03/08 03:08:01;;;;;;;63.47;31.90;;;-0.80;1.00;;;;;;4930796;29;20258;-64
2023/03/08 03:10:28;;;;;;;62.30;31.63;;;-0.80;1.00;;;;;;4922147;29;20959;-64
2023/03/08 03:12:56;;;;;;;64.73;32.90;;;-0.80;1.00;;;;;;4955345;28;20251;-63
2023/03/08 03:15:27;;;;;;;60.47;31.60;;;-0.70;1.00;;;;;;4954436;28;20270;-64
2023/03/08 03:17:57;;;;;;;59.57;31.53;;;-0.70;1.00;;;;;;4923829;29;20229;-64
2023/03/08 03:20:24;;;;;;;64.93;31.37;;;-0.60;99.90;;;;;;4942194;29;20231;-64
2023/03/08 03:22:51;;;;;;;60.63;32.07;;;-0.50;99.90;;;;;;4942435;29;20214;-63
2023/03/08 03:25:22;;;;;;;62.90;32.50;;;-0.40;99.90;;;;;;4938361;28;20235;-64
2023/03/08 03:27:49;;;;;;;66.93;32.10;;;-0.40;1.00;;;;;;4939828;29;20296;-64
2023/03/08 03:30:17;;;;;;;64.07;32.87;;;-0.40;1.00;;;;;;4924053;29;20231;-64
2023/03/08 03:32:45;;;;;;;65.40;33.30;;;-0.40;1.00;;;;;;4922189;29;20207;-64
2023/03/08 03:35:16;;;;;;;67.60;34.93;;;-0.40;1.00;;;;;;4929850;29;20218;-65
2023/03/08 03:37:43;;;;;;;70.80;33.10;;;-0.30;1.00;;;;;;4930973;29;20691;-65
2023/03/08 03:40:11;;;;;;;67.00;34.13;;;-0.30;1.00;;;;;;4931154;29;20199;-65
2023/03/08 03:42:38;;;;;;;64.20;32.63;;;-0.30;1.00;;;;;;4937400;29;21089;-65
2023/03/08 03:45:10;;;;;;;76.10;35.30;;;-0.30;4.80;;;;;;4939085;29;20209;-65
2023/03/08 03:47:38;;;;;;;73.80;34.93;;;-0.30;76.80;;;;;;4923319;29;20242;-65
2023/03/08 03:50:08;;;;;;;68.23;35.13;;;-0.20;99.90;;;;;;4955737;28;20200;-65
2023/03/08 03:53:03;;;;;;;71.13;35.87;;;-0.20;99.90;;;;;;4929155;29;20673;-65
2023/03/08 03:55:31;;;;;;;74.27;34.97;;;-0.20;99.90;;;;;;4957259;28;20674;-65
2023/03/08 03:58:01;;;;;;;68.97;34.13;;;-0.20;99.90;;;;;;4933929;29;20834;-65
2023/03/08 04:00:28;;;;;;;67.40;33.10;;;-0.20;99.90;;;;;;4944431;29;20688;-62
2023/03/08 04:03:06;;;;;;;73.93;35.57;;;-0.20;99.90;;;;;;4933330;29;20221;-62
2023/03/08 04:05:35;;;;;;;67.13;33.00;;;-0.20;99.90;;;;;;4926008;29;20213;-62
2023/03/08 04:08:03;;;;;;;76.50;35.53;;;-0.20;99.90;;;;;;4924273;29;20222;-63
2023/03/08 04:10:33;;;;;;;68.80;33.73;;;-0.20;99.90;;;;;;4956877;28;20206;-63
2023/03/08 04:13:01;;;;;;;69.63;33.63;;;-0.20;1.00;;;;;;4940514;28;20203;-62
2023/03/08 04:15:31;;;;;;;74.80;35.67;;;-0.20;1.00;;;;;;4942406;28;20190;-62
2023/03/08 04:18:01;;;;;;;72.67;35.53;;;-0.20;1.00;;;;;;4942998;28;20632;-63
2023/03/08 04:20:31;;;;;;;67.93;34.10;;;-0.20;1.00;;;;;;4957929;28;20810;-62
2023/03/08 04:22:59;;;;;;;71.40;34.80;;;-0.20;1.00;;;;;;4941760;29;20294;-63
2023/03/08 04:25:31;;;;;;;76.07;35.10;;;-0.10;1.00;;;;;;4947365;29;20208;-63
2023/03/08 04:28:00;;;;;;;76.37;35.57;;;-0.10;1.00;;;;;;4933556;29;20219;-62
2023/03/08 04:30:28;;;;;;;68.47;35.00;;;-0.10;1.00;;;;;;4941785;29;20686;-64
2023/03/08 04:32:57;;;;;;;69.47;34.90;;;-0.10;1.00;;;;;;4941441;29;20211;-62
2023/03/08 04:35:29;;;;;;;69.20;34.80;;;-0.10;1.00;;;;;;4942349;28;20269;-63
2023/03/08 04:37:57;;;;;;;72.13;35.40;;;-0.10;1.00;;;;;;4925963;29;20217;-62
2023/03/08 04:40:26;;;;;;;70.10;33.87;;;-0.10;1.00;;;;;;4933499;29;20709;-63
2023/03/08 04:42:56;;;;;;;72.23;36.53;;;-0.10;1.00;;;;;;4942269;28;20195;-63
2023/03/08 04:45:33;;;;;;;78.10;38.90;;;-0.10;1.00;;;;;;4940446;29;20209;-63
2023/03/08 04:48:05;;;;;;;75.87;36.23;;;-0.10;1.00;;;;;;4926816;29;20266;-62
2023/03/08 04:50:32;;;;;;;70.40;34.67;;;-0.10;1.00;;;;;;4925085;29;20212;-63
2023/03/08 04:52:59;;;;;;;69.33;33.20;;;-0.10;1.00;;;;;;4943100;29;20210;-62
2023/03/08 04:55:27;;;;;;;68.97;35.53;;;-0.10;1.00;;;;;;4940962;28;20208;-67
2023/03/08 04:57:54;;;;;;;74.97;36.57;;;-0.10;1.00;;;;;;4948476;28;20314;-62
2023/03/08 05:00:22;;;;;;;74.67;36.03;;;-0.10;1.00;;;;;;4933304;29;20207;-62
2023/03/08 05:02:50;;;;;;;72.90;36.30;;;-0.10;1.00;;;;;;4942386;29;20211;-62
2023/03/08 05:05:18;;;;;;;78.63;36.47;;;-0.10;1.00;;;;;;4941245;28;20307;-62
2023/03/08 05:07:45;;;;;;;79.17;37.10;;;-0.10;1.00;;;;;;4941665;29;20750;-62
2023/03/08 05:10:12;;;;;;;82.93;36.60;;;-0.10;1.00;;;;;;4932383;29;20203;-62
2023/03/08 05:12:40;;;;;;;78.60;37.40;;;-0.10;1.00;;;;;;4934330;29;20705;-62
2023/03/08 05:15:08;;;;;;;76.93;36.10;;;-0.10;1.00;;;;;;4933361;29;20229;-62
2023/03/08 05:17:35;;;;;;;87.63;38.00;;;-0.10;1.00;;;;;;4926262;29;20892;-62
2023/03/08 05:20:03;;;;;;;79.37;36.87;;;-0.10;1.00;;;;;;4942007;29;20207;-63
2023/03/08 05:22:35;;;;;;;75.73;35.27;;;-0.10;1.00;;;;;;4923916;29;20204;-63
2023/03/08 05:25:21;;;;;;;77.63;36.07;;;-0.10;1.00;;;;;;4938160;28;20866;-62
2023/03/08 05:27:48;;;;;;;81.77;40.37;;;-0.10;1.00;;;;;;4923670;29;20204;-63
2023/03/08 05:30:18;;;;;;;79.33;38.00;;;-0.10;23.70;;;;;;4948527;28;20207;-63
2023/03/08 05:32:46;;;;;;;85.23;37.40;;;-0.10;94.80;;;;;;4957308;28;20207;-62
2023/03/08 05:35:13;;;;;;;76.27;36.80;;;-0.10;99.90;;;;;;4932569;29;20195;-62
2023/03/08 05:37:40;;;;;;;87.70;39.60;;;-0.10;99.90;;;;;;4940862;29;20234;-62
2023/03/08 05:40:08;;;;;;;79.80;38.03;;;-0.10;99.90;;;;;;4943687;28;20298;-62
2023/03/08 05:42:38;;;;;;;87.87;37.67;;;-0.10;99.90;;;;;;4940980;29;20199;-62
2023/03/08 05:45:06;;;;;;;81.27;38.40;;;-0.10;99.90;;;;;;4930976;29;20200;-62
2023/03/08 05:47:36;;;;;;;82.90;36.97;;;-0.10;99.90;;;;;;4931858;29;20638;-62
2023/03/08 05:50:07;;;;;;;85.57;39.10;;;-0.10;99.90;;;;;;4932444;29;20210;-62
2023/03/08 05:52:37;;;;;;;88.27;37.67;;;0.00;99.90;;;;;;4938434;29;20290;-62
2023/03/08 05:55:05;;;;;;;75.30;35.30;;;0.00;99.90;;;;;;4924451;29;20207;-63
2023/03/08 05:57:32;;;;;;;81.07;36.93;;;0.00;99.90;;;;;;4940665;29;20234;-61
2023/03/08 05:59:59;;;;;;;76.13;36.47;;;0.00;99.90;;;;;;4932546;29;20216;-62
2023/03/08 06:02:27;;;;;;;78.40;36.90;;;0.00;99.90;;;;;;4932481;29;20582;-62
2023/03/08 06:04:55;;;;;;;79.13;35.40;;;0.00;99.90;;;;;;4940619;29;20230;-63
2023/03/08 06:07:24;;;;;;;82.87;37.33;;;0.10;99.90;;;;;;4941172;29;20225;-62
2023/03/08 06:10:01;;;;;;;78.23;35.87;;;0.10;99.90;;;;;;4932442;29;20246;-63
2023/03/08 06:12:28;;;;;;;69.00;34.33;;;0.10;99.90;;;;;;4933435;29;20573;-63
2023/03/08 06:14:59;;;;;;;78.20;35.77;;;0.10;99.90;;;;;;4932787;29;20207;-62
2023/03/08 06:17:29;;;;;;;70.73;34.03;;;0.20;99.90;;;;;;4931513;29;20632;-62
2023/03/08 06:19:59;;;;;;;79.03;35.50;;;0.10;99.90;;;;;;4932924;29;20221;-66
2023/03/08 06:22:26;;;;;;;73.30;33.67;;;0.10;99.90;;;;;;4934143;29;20257;-63
2023/03/08 06:24:54;;;;;;;75.97;34.57;;;0.20;99.90;;;;;;4931571;28;20886;-63
2023/03/08 06:27:27;;;;;;;74.27;34.60;;;0.20;99.90;;;;;;4931841;29;20647;-61
2023/03/08 06:29:57;;;;;;;71.43;33.40;;;0.30;95.90;;;;;;4925838;29;20319;-62
2023/03/08 06:32:25;;;;;;;67.70;33.87;;;0.30;26.70;;;;;;4923911;29;20246;-64
2023/03/08 06:34:52;;;;;;;65.90;33.40;;;0.30;1.00;;;;;;4932422;29;20199;-63
2023/03/08 06:37:19;;;;;;;70.27;32.27;;;0.40;1.00;;;;;;4932548;29;20219;-63
2023/03/08 06:39:46;;;;;;;59.27;30.47;;;0.40;1.00;;;;;;4955104;28;20220;-64
2023/03/08 06:42:13;;;;;;;65.33;30.70;;;0.40;1.00;;;;;;4929182;29;20755;-63
2023/03/08 06:44:40;;;;;;;68.43;31.10;;;0.40;1.00;;;;;;4923939;29;20207;-63
2023/03/08 06:47:08;;;;;;;70.27;32.43;;;0.40;99.90;;;;;;4932298;29;20257;-63
2023/03/08 06:49:35;;;;;;;59.87;30.40;;;0.30;99.90;;;;;;4955616;28;20266;-62
2023/03/08 06:52:02;;;;;;;61.90;29.00;;;0.40;63.10;;;;;;4941435;28;20556;-63
2023/03/08 06:54:29;;;;;;;61.60;29.00;;;0.40;1.00;;;;;;4928876;29;20250;-63
2023/03/08 06:56:56;;;;;;;62.17;30.10;;;0.40;1.00;;;;;;4941526;29;20207;-63
2023/03/08 06:59:23;;;;;;;53.83;27.33;;;0.50;1.00;;;;;;4931827;29;20207;-62
2023/03/08 07:01:50;;;;;;;60.87;27.90;;;0.40;99.90;;;;;;4938855;29;20263;-62
2023/03/08 07:04:17;;;;;;;61.23;27.97;;;0.50;54.20;;;;;;4941957;29;20239;-63
2023/03/08 07:06:44;;;;;;;56.07;27.13;;;0.50;1.00;;;;;;4957373;28;20233;-63
2023/03/08 07:09:12;;;;;;;55.53;26.87;;;0.80;1.00;;;;;;4940808;28;20686;-62
2023/03/08 07:11:39;;;;;;;62.67;27.80;;;0.70;74.60;;;;;;4938608;28;20200;-62
2023/03/08 07:14:07;;;;;;;49.83;24.50;;;0.70;1.00;;;;;;4929202;29;20683;-63
2023/03/08 07:16:33;;;;;;;48.80;23.53;;;0.70;1.00;;;;;;4947495;29;20254;-63
2023/03/08 07:19:02;;;;;;;46.50;24.47;;;0.80;1.00;;;;;;4940822;28;20223;-62
2023/03/08 07:21:29;;;;;;;46.87;21.30;;;0.80;99.90;;;;;;4939733;28;20270;-63
2023/03/08 07:23:56;;;;;;;53.00;22.60;;;0.80;52.60;;;;;;4941093;29;20297;-63
2023/03/08 07:26:23;;;;;;;43.77;21.07;;;0.90;99.90;;;;;;4939473;29;20211;-62
2023/03/08 07:28:50;;;;;;;40.87;19.23;;;0.90;1.00;;;;;;4957810;28;20215;-62
2023/03/08 07:31:17;;;;;;;38.47;18.07;;;0.80;1.00;;;;;;4945355;29;20603;-61
2023/03/08 07:33:44;;;;;;;47.20;19.70;;;0.80;1.00;;;;;;4945271;29;20203;-60
2023/03/08 07:36:11;;;;;;;35.50;18.07;;;0.80;1.00;;;;;;4959847;28;20310;-62
2023/03/08 07:38:40;;;;;;;36.47;18.80;;;0.80;1.00;;;;;;4943584;28;20340;-62
2023/03/08 07:41:09;;;;;;;34.13;17.23;;;0.80;1.00;;;;;;4943498;29;20207;-63
2023/03/08 07:43:37;;;;;;;32.50;16.83;;;0.80;1.00;;;;;;4944126;29;20323;-63
2023/03/08 07:46:10;;;;;;;35.83;17.83;;;0.80;1.00;;;;;;4959162;28;20574;-62
2023/03/08 07:48:37;;;;;;;32.27;15.87;;;0.80;1.00;;;;;;4944122;29;20219;-63
2023/03/08 07:51:08;;;;;;;31.23;16.37;;;0.90;1.00;;;;;;4943098;29;20191;-62
2023/03/08 07:53:36;;;;;;;29.67;15.20;;;0.80;1.00;;;;;;4933501;29;20211;-62
2023/03/08 07:56:03;;;;;;;53.63;29.10;;;0.90;1.00;;;;;;4944369;28;20194;-61
2023/03/08 07:58:30;;;;;;;42.57;24.67;;;0.90;1.00;;;;;;4960168;28;20204;-63
2023/03/08 08:00:57;;;;;;;31.43;16.13;;;0.80;1.00;;;;;;4943147;29;20202;-62
2023/03/08 08:03:24;;;;;;;34.10;17.17;;;0.80;1.00;;;;;;4958925;28;20278;-63
2023/03/08 08:05:51;;;;;;;28.50;15.00;;;0.80;1.00;;;;;;4945950;29;20195;-62
2023/03/08 08:08:18;;;;;;;28.80;15.47;;;0.80;1.00;;;;;;4944900;29;20706;-62
2023/03/08 08:10:45;;;;;;;23.50;13.77;;;0.70;1.00;;;;;;4957171;28;20574;-65
2023/03/08 08:13:12;;;;;;;21.20;11.93;;;0.80;1.00;;;;;;4944921;29;20258;-62
2023/03/08 08:15:39;;;;;;;25.87;14.97;;;0.70;1.00;;;;;;4958321;28;20211;-62
2023/03/08 08:18:06;;;;;;;18.03;9.57;;;0.70;1.00;;;;;;4926161;29;20290;-63
2023/03/08 08:20:33;;;;;;;19.87;10.70;;;0.70;1.00;;;;;;4944971;29;20547;-62
2023/03/08 08:23:00;;;;;;;17.07;9.63;;;0.70;3.70;;;;;;4943788;29;20262;-62
2023/03/08 08:25:27;;;;;;;15.07;9.10;;;0.60;99.90;;;;;;4943746;28;20200;-61
2023/03/08 08:27:54;;;;;;;16.67;8.73;;;0.60;99.90;;;;;;4943422;29;20326;-61
2023/03/08 08:30:21;;;;;;;17.20;9.43;;;0.60;99.90;;;;;;4942408;28;20326;-62
2023/03/08 08:32:48;;;;;;;21.03;8.47;;;0.60;1.00;;;;;;4941349;28;20238;-62
2023/03/08 08:35:17;;;;;;;15.57;8.40;;;0.50;1.00;;;;;;4941791;28;20287;-62
2023/03/08 08:37:44;;;;;;;16.57;6.40;;;0.50;1.00;;;;;;4941974;28;20274;-62
2023/03/08 08:40:11;;;;;;;12.03;5.93;;;0.50;1.00;;;;;;4941473;28;20251;-61
2023/03/08 08:42:38;;;;;;;9.70;6.33;;;0.50;1.00;;;;;;4940986;29;20239;-62
2023/03/08 08:45:06;;;;;;;11.10;6.47;;;0.50;1.00;;;;;;4956836;28;20222;-63
2023/03/08 08:47:35;;;;;;;11.87;5.77;;;0.60;1.00;;;;;;4943057;29;20207;-62
2023/03/08 08:50:02;;;;;;;11.97;6.47;;;0.70;1.00;;;;;;4942091;28;20242;-63
2023/03/08 08:52:29;;;;;;;12.03;6.20;;;0.60;1.00;;;;;;4958043;28;20231;-64
2023/03/08 08:54:56;;;;;;;12.87;6.93;;;0.60;1.00;;;;;;4941189;28;20558;-64
2023/03/08 08:57:23;;;;;;;9.33;6.40;;;0.60;1.00;;;;;;4942567;28;20195;-63
2023/03/08 08:59:50;;;;;;;12.00;6.50;;;0.60;1.00;;;;;;4958467;28;20215;-63
2023/03/08 09:02:17;;;;;;;10.00;5.80;;;0.70;1.00;;;;;;4958374;28;20227;-67
2023/03/08 09:04:44;;;;;;;11.40;5.97;;;0.60;1.00;;;;;;4941503;29;20273;-62
2023/03/08 09:07:11;;;;;;;7.27;5.50;;;0.50;1.00;;;;;;4942758;29;20738;-63
2023/03/08 09:09:38;;;;;;;7.10;5.23;;;0.60;1.00;;;;;;4942709;29;20215;-64
2023/03/08 09:12:05;;;;;;;8.43;5.50;;;0.60;1.00;;;;;;4942378;28;20831;-62
2023/03/08 09:14:33;;;;;;;10.60;5.20;;;0.50;1.00;;;;;;4944433;28;20294;-63
2023/03/08 09:17:00;;;;;;;13.03;5.90;;;0.50;1.00;;;;;;4925548;28;20253;-64
2023/03/08 09:19:27;;;;;;;6.27;4.37;;;0.50;1.00;;;;;;4942246;29;20283;-63
2023/03/08 09:21:54;;;;;;;7.83;4.77;;;0.50;1.00;;;;;;4958274;28;20214;-64
2023/03/08 09:24:21;;;;;;;6.93;5.00;;;0.50;1.00;;;;;;4942168;29;20667;-63
2023/03/08 09:26:48;;;;;;;10.00;5.17;;;0.50;1.00;;;;;;4923598;29;20203;-62
2023/03/08 09:29:15;;;;;;;8.27;5.30;;;0.60;1.00;;;;;;4956252;28;20262;-65
2023/03/08 09:31:44;;;;;;;9.50;5.40;;;0.70;1.00;;;;;;4954634;28;20727;-62
2023/03/08 09:34:13;;;;;;;7.57;5.07;;;0.70;1.00;;;;;;4942459;28;20284;-62
2023/03/08 09:36:41;;;;;;;6.63;5.00;;;0.60;1.00;;;;;;4944388;28;20196;-62
2023/03/08 09:39:10;;;;;;;8.40;5.40;;;0.60;1.00;;;;;;4942577;28;20283;-64
2023/03/08 09:41:37;;;;;;;6.63;4.83;;;0.60;1.00;;;;;;4955517;28;20679;-63
2023/03/08 09:44:28;;;;;;;7.80;5.10;;;0.60;1.00;;;;;;4939619;28;20704;-62
2023/03/08 09:47:10;;;;;;;6.60;4.93;;;0.60;1.00;;;;;;4955297;28;20208;-62
2023/03/08 09:49:37;;;;;;;7.67;4.90;;;0.70;99.90;;;;;;4926477;29;20255;-66
2023/03/08 09:52:29;;;;;;;4.67;4.07;;;0.60;99.90;;;;;;4955498;28;20559;-63
2023/03/08 09:55:01;;;;;;;9.83;5.23;;;0.50;1.00;;;;;;4925843;29;20230;-62
2023/03/08 09:57:35;;;;;;;9.77;4.83;;;0.60;1.00;;;;;;4940799;28;20223;-67
2023/03/08 10:00:10;;;;;;;6.93;4.67;;;0.60;1.00;;;;;;4942226;28;20566;-62
2023/03/08 10:03:01;;;;;;;6.43;4.40;;;0.70;1.00;;;;;;4938143;28;20660;-70
2023/03/08 10:05:38;;;;;;;6.70;4.67;;;0.70;1.00;;;;;;4941122;29;20219;-63
2023/03/08 10:08:12;;;;;;;4.50;3.90;;;0.70;1.00;;;;;;4940631;29;20610;-65
2023/03/08 10:10:42;;;;;;;5.40;4.10;;;0.70;1.00;;;;;;4937652;29;20225;-64
2023/03/08 10:13:30;;;;;;;5.13;3.77;;;0.70;1.00;;;;;;4955261;28;20204;-64
2023/03/08 10:16:11;;;;;;;6.63;4.80;;;0.70;1.00;;;;;;4954801;28;20211;-63
2023/03/08 10:18:44;;;;;;;4.33;3.17;;;0.80;1.00;;;;;;4939763;29;20194;-64
2023/03/08 10:21:16;;;;;;;5.30;3.23;;;0.80;99.90;;;;;;4950449;28;20207;-64
2023/03/08 10:23:54;;;;;;;7.87;3.80;;;0.70;1.00;;;;;;4955586;28;20218;-63
2023/03/08 10:26:24;;;;;;;4.67;3.37;;;0.70;1.00;;;;;;4941779;28;20195;-62
2023/03/08 10:28:51;;;;;;;6.37;4.03;;;0.70;1.00;;;;;;4941502;29;20640;-62
2023/03/08 10:31:26;;;;;;;4.00;3.33;;;0.70;1.00;;;;;;4930276;29;20211;-67
2023/03/08 10:34:16;;;;;;;5.97;3.63;;;0.70;1.00;;;;;;4944136;29;20191;-63
2023/03/08 10:37:05;;;;;;;7.27;3.60;;;0.70;1.00;;;;;;4958410;28;20259;-62
2023/03/08 10:39:35;;;;;;;4.37;3.10;;;0.80;1.00;;;;;;4955317;28;20195;-63
2023/03/08 10:42:13;;;;;;;4.17;3.17;;;0.80;1.00;;;;;;4939936;29;20297;-64
2023/03/08 10:44:50;;;;;;;4.70;3.40;;;0.90;1.00;;;;;;4940578;29;20274;-63
2023/03/08 10:47:28;;;;;;;5.63;3.60;;;1.00;1.00;;;;;;4940233;29;20222;-62
2023/03/08 10:50:13;;;;;;;5.73;4.40;;;0.90;1.00;;;;;;4943662;29;20587;-61
2023/03/08 10:52:41;;;;;;;6.63;4.10;;;1.10;1.00;;;;;;4938877;29;20203;-62
2023/03/08 10:55:08;;;;;;;4.70;3.77;;;1.00;1.00;;;;;;4941295;28;20714;-62
2023/03/08 10:57:36;;;;;;;4.07;3.23;;;0.90;1.00;;;;;;4940746;28;20285;-62
2023/03/08 11:00:18;;;;;;;5.87;3.53;;;0.90;99.90;;;;;;4953707;28;20210;-62
2023/03/08 11:02:47;;;;;;;6.00;3.50;;;0.80;1.00;;;;;;4942743;28;20240;-62
2023/03/08 11:05:25;;;;;;;4.80;3.17;;;0.80;1.00;;;;;;4945787;29;20591;-63
2023/03/08 11:07:56;;;;;;;5.47;3.47;;;0.80;1.00;;;;;;4959356;28;20221;-66
2023/03/08 11:10:25;;;;;;;6.43;3.47;;;0.70;1.00;;;;;;4944627;28;20305;-62
2023/03/08 11:13:11;;;;;;;5.23;3.23;;;0.80;1.00;;;;;;4958254;28;20202;-64
2023/03/08 11:15:41;;;;;;;4.57;3.00;;;0.80;1.00;;;;;;4941679;28;20195;-62
2023/03/08 11:18:17;;;;;;;3.83;3.10;;;0.70;1.00;;;;;;4941356;28;20195;-62
2023/03/08 11:20:53;;;;;;;8.23;3.10;;;0.80;1.00;;;;;;4942617;28;20261;-65
2023/03/08 11:23:39;;;;;;;5.13;3.43;;;0.90;1.00;;;;;;4958278;28;20199;-65
2023/03/08 11:26:30;;;;;;;5.50;3.50;;;1.00;1.00;;;;;;4945927;29;20187;-63
2023/03/08 11:28:57;;;;;;;4.33;3.10;;;1.00;1.00;;;;;;4974863;28;20713;-63
2023/03/08 11:31:38;;;;;;;3.87;3.30;;;1.10;99.90;;;;;;4927708;29;21231;-63
2023/03/08 11:34:20;;;;;;;4.43;3.30;;;1.00;99.90;;;;;;4925129;29;20196;-62
2023/03/08 11:37:01;;;;;;;5.23;3.70;;;1.10;99.90;;;;;;4958489;28;20196;-63
2023/03/08 11:39:53;;;;;;;4.87;3.87;;;1.20;99.90;;;;;;4940466;29;20207;-61
2023/03/08 11:42:23;;;;;;;4.50;3.67;;;1.10;99.90;;;;;;4942821;28;20199;-62
2023/03/08 11:45:17;;;;;;;4.57;4.00;;;1.10;99.90;;;;;;4957272;28;20203;-63
2023/03/08 11:47:49;;;;;;;7.83;4.33;;;1.20;99.90;;;;;;4930673;29;20655;-62
2023/03/08 11:50:24;;;;;;;5.63;3.70;;;1.20;99.90;;;;;;4943602;29;20587;-67
2023/03/08 11:53:41;;;;;;;7.80;5.10;;;1.10;99.90;;;;;;4925771;28;20210;-66
2023/03/08 11:56:17;;;;;;;4.60;3.50;;;1.10;99.90;;;;;;4955665;28;20222;-63
2023/03/08 11:58:52;;;;;;;4.47;3.50;;;1.00;82.80;;;;;;4957976;28;20207;-61
2023/03/08 12:01:28;;;;;;;4.60;3.77;;;1.10;99.90;;;;;;4941277;29;20213;-61
2023/03/08 12:04:02;;;;;;;5.53;4.27;;;1.10;99.90;;;;;;4930760;29;20248;-63
2023/03/08 12:06:43;;;;;;;5.00;4.03;;;1.20;99.90;;;;;;4957089;28;20206;-62
2023/03/08 12:09:21;;;;;;;5.73;4.63;;;1.20;99.90;;;;;;4958765;28;20266;-62
2023/03/08 12:12:25;;;;;;;6.67;4.10;;;1.20;99.90;;;;;;4958676;28;20199;-62
2023/03/08 12:15:18;;;;;;;4.87;4.37;;;1.20;99.90;;;;;;4945701;28;20544;-60
2023/03/08 12:17:52;;;;;;;5.77;4.17;;;1.10;99.90;;;;;;4960331;28;20698;-62
2023/03/08 12:20:21;;;;;;;6.53;4.23;;;1.20;99.90;;;;;;4933488;29;20201;-62
2023/03/08 12:23:10;;;;;;;8.20;4.50;;;1.20;94.20;;;;;;4944365;29;20196;-62
2023/03/08 12:25:44;;;;;;;7.60;5.03;;;1.20;51.20;;;;;;4957696;28;20231;-61
2023/03/08 12:28:26;;;;;;;7.83;5.00;;;1.20;1.00;;;;;;4958570;28;20215;-61
2023/03/08 12:31:20;;;;;;;8.70;5.90;;;1.20;1.00;;;;;;4943580;29;20215;-62
2023/03/08 12:33:57;;;;;;;7.17;5.37;;;1.20;1.00;;;;;;4942252;29;20203;-61
2023/03/08 12:36:42;;;;;;;6.83;5.47;;;1.30;1.00;;;;;;4958406;28;20742;-61
2023/03/08 12:39:26;;;;;;;9.37;6.47;;;1.30;1.00;;;;;;4944235;29;20211;-63
2023/03/08 12:42:33;;;;;;;8.20;5.40;;;1.40;1.00;;;;;;4941896;29;20738;-62
2023/03/08 12:45:19;;;;;;;6.40;5.07;;;1.30;1.00;;;;;;4922130;29;20305;-62
2023/03/08 12:48:26;;;;;;;7.23;5.03;;;1.20;1.00;;;;;;4943104;29;20658;-64
2023/03/08 12:50:54;;;;;;;6.20;4.73;;;1.20;1.00;;;;;;4957029;28;20230;-62
2023/03/08 12:53:42;;;;;;;6.30;4.77;;;1.20;1.00;;;;;;4942242;29;20200;-62
2023/03/08 12:56:09;;;;;;;6.53;4.47;;;1.20;1.00;;;;;;4945883;29;20211;-61
2023/03/08 12:58:55;;;;;;;6.60;4.60;;;1.20;1.00;;;;;;4943902;28;20667;-63
2023/03/08 13:01:30;;;;;;;8.07;5.10;;;1.30;1.00;;;;;;4940815;28;20218;-64
2023/03/08 13:03:57;;;;;;;6.53;4.27;;;1.30;1.00;;;;;;4927042;29;20618;-64
2023/03/08 13:06:32;;;;;;;7.60;5.40;;;1.30;1.00;;;;;;4942667;29;20712;-63